sensor_id;sensor_type;location;lat;lon;timestamp;P1;durP1;ratioP1;P2;durP2;ratioP2
32455;SDS011;18912;43.270;27.942;2023-03-23T00:01:06;3.90;;;2.75;;
32455;SDS011;18912;43.270;27.942;2023-03-23T00:03:35;5.88;;;3.22;;
32455;SDS011;18912;43.270;27.942;2023-03-23T00:06:03;6.65;;;3.25;;
32455;SDS011;18912;43.270;27.942;2023-03-23T00:08:30;5.22;;;3.03;;
32455;SDS011;18912;43.270;27.942;2023-03-23T00:10:58;4.75;;;2.88;;
32455;SDS011;18912;43.270;27.942;2023-03-23T00:13:26;5.38;;;3.35;;
32455;SDS011;18912;43.270;27.942;2023-03-23T00:15:53;5.32;;;3.08;;
32455;SDS011;18912;43.270;27.942;2023-03-23T00:18:20;4.82;;;2.78;;
32455;SDS011;18912;43.270;27.942;2023-03-23T00:20:46;4.35;;;2.72;;
32455;SDS011;18912;43.270;27.942;2023-03-23T00:23:14;5.00;;;2.85;;
32455;SDS011;18912;43.270;27.942;2023-03-23T00:25:44;4.55;;;3.05;;
32455;SDS011;18912;43.270;27.942;2023-03-23T00:28:13;3.80;;;2.65;;
32455;SDS011;18912;43.270;27.942;2023-03-23T00:30:39;4.00;;;2.30;;
32455;SDS011;18912;43.270;27.942;2023-03-23T00:33:07;3.58;;;2.10;;
32455;SDS011;18912;43.270;27.942;2023-03-23T00:35:33;3.42;;;2.25;;
32455;SDS011;18912;43.270;27.942;2023-03-23T00:38:01;4.38;;;2.70;;
32455;SDS011;18912;43.270;27.942;2023-03-23T00:40:28;3.90;;;2.40;;
32455;SDS011;18912;43.270;27.942;2023-03-23T00:42:53;3.53;;;2.20;;
32455;SDS011;18912;43.270;27.942;2023-03-23T00:45:18;4.00;;;2.40;;
32455;SDS011;18912;43.270;27.942;2023-03-23T00:47:44;4.33;;;2.40;;
32455;SDS011;18912;43.270;27.942;2023-03-23T00:50:16;4.22;;;2.47;;
32455;SDS011;18912;43.270;27.942;2023-03-23T00:52:43;3.67;;;2.28;;
32455;SDS011;18912;43.270;27.942;2023-03-23T00:55:08;4.38;;;2.45;;
32455;SDS011;18912;43.270;27.942;2023-03-23T00:57:34;2.65;;;1.73;;
32455;SDS011;18912;43.270;27.942;2023-03-23T01:00:00;4.47;;;2.75;;
32455;SDS011;18912;43.270;27.942;2023-03-23T01:02:27;4.67;;;2.63;;
32455;SDS011;18912;43.270;27.942;2023-03-23T01:07:21;3.60;;;2.35;;
32455;SDS011;18912;43.270;27.942;2023-03-23T01:09:48;3.00;;;2.28;;
32455;SDS011;18912;43.270;27.942;2023-03-23T01:12:14;2.77;;;2.27;;
32455;SDS011;18912;43.270;27.942;2023-03-23T01:14:40;3.13;;;2.13;;
32455;SDS011;18912;43.270;27.942;2023-03-23T01:17:07;3.92;;;2.42;;
32455;SDS011;18912;43.270;27.942;2023-03-23T01:19:32;2.70;;;2.15;;
32455;SDS011;18912;43.270;27.942;2023-03-23T01:21:58;5.23;;;2.07;;
32455;SDS011;18912;43.270;27.942;2023-03-23T01:24:23;2.93;;;2.20;;
32455;SDS011;18912;43.270;27.942;2023-03-23T01:26:49;5.50;;;2.47;;
32455;SDS011;18912;43.270;27.942;2023-03-23T01:29:14;3.63;;;2.30;;
32455;SDS011;18912;43.270;27.942;2023-03-23T01:31:40;2.77;;;2.23;;
32455;SDS011;18912;43.270;27.942;2023-03-23T01:34:07;3.17;;;2.30;;
32455;SDS011;18912;43.270;27.942;2023-03-23T01:36:33;4.18;;;2.60;;
32455;SDS011;18912;43.270;27.942;2023-03-23T01:38:59;3.90;;;2.70;;
32455;SDS011;18912;43.270;27.942;2023-03-23T01:41:28;3.15;;;2.55;;
32455;SDS011;18912;43.270;27.942;2023-03-23T01:46:31;2.67;;;2.13;;
32455;SDS011;18912;43.270;27.942;2023-03-23T01:49:00;3.35;;;2.60;;
32455;SDS011;18912;43.270;27.942;2023-03-23T01:51:31;3.47;;;2.55;;
32455;SDS011;18912;43.270;27.942;2023-03-23T01:54:02;4.70;;;2.80;;
32455;SDS011;18912;43.270;27.942;2023-03-23T01:56:39;3.47;;;2.53;;
32455;SDS011;18912;43.270;27.942;2023-03-23T01:59:10;4.30;;;3.00;;
32455;SDS011;18912;43.270;27.942;2023-03-23T02:01:36;4.53;;;2.83;;
32455;SDS011;18912;43.270;27.942;2023-03-23T02:04:08;3.70;;;2.72;;
32455;SDS011;18912;43.270;27.942;2023-03-23T02:06:34;4.20;;;2.88;;
32455;SDS011;18912;43.270;27.942;2023-03-23T02:09:01;9.80;;;3.90;;
32455;SDS011;18912;43.270;27.942;2023-03-23T02:11:27;5.68;;;3.60;;
32455;SDS011;18912;43.270;27.942;2023-03-23T02:13:53;4.43;;;3.00;;
32455;SDS011;18912;43.270;27.942;2023-03-23T02:35:43;5.57;;;3.53;;
32455;SDS011;18912;43.270;27.942;2023-03-23T02:41:46;5.97;;;3.13;;
32455;SDS011;18912;43.270;27.942;2023-03-23T02:44:24;5.28;;;3.28;;
32455;SDS011;18912;43.270;27.942;2023-03-23T02:46:55;4.85;;;2.90;;
32455;SDS011;18912;43.270;27.942;2023-03-23T02:49:22;3.95;;;3.05;;
32455;SDS011;18912;43.270;27.942;2023-03-23T02:51:50;4.13;;;2.65;;
32455;SDS011;18912;43.270;27.942;2023-03-23T02:54:18;4.55;;;2.60;;
32455;SDS011;18912;43.270;27.942;2023-03-23T02:56:47;3.90;;;2.67;;
32455;SDS011;18912;43.270;27.942;2023-03-23T02:59:15;6.13;;;3.10;;
32455;SDS011;18912;43.270;27.942;2023-03-23T03:04:13;4.83;;;3.27;;
32455;SDS011;18912;43.270;27.942;2023-03-23T03:11:56;5.82;;;4.03;;
32455;SDS011;18912;43.270;27.942;2023-03-23T03:14:31;5.75;;;3.58;;
32455;SDS011;18912;43.270;27.942;2023-03-23T03:19:47;6.93;;;4.43;;
32455;SDS011;18912;43.270;27.942;2023-03-23T03:22:16;9.80;;;4.22;;
32455;SDS011;18912;43.270;27.942;2023-03-23T03:24:43;6.35;;;3.70;;
32455;SDS011;18912;43.270;27.942;2023-03-23T03:27:11;5.20;;;3.70;;
32455;SDS011;18912;43.270;27.942;2023-03-23T03:29:41;7.70;;;4.63;;
32455;SDS011;18912;43.270;27.942;2023-03-23T03:32:14;6.65;;;4.30;;
32455;SDS011;18912;43.270;27.942;2023-03-23T03:34:43;6.65;;;4.50;;
32455;SDS011;18912;43.270;27.942;2023-03-23T03:37:09;7.83;;;4.37;;
32455;SDS011;18912;43.270;27.942;2023-03-23T03:39:37;5.85;;;4.18;;
32455;SDS011;18912;43.270;27.942;2023-03-23T03:42:04;5.55;;;3.83;;
32455;SDS011;18912;43.270;27.942;2023-03-23T03:44:30;5.45;;;3.92;;
32455;SDS011;18912;43.270;27.942;2023-03-23T03:46:57;6.22;;;3.90;;
32455;SDS011;18912;43.270;27.942;2023-03-23T03:49:22;4.40;;;2.80;;
32455;SDS011;18912;43.270;27.942;2023-03-23T03:51:48;7.73;;;4.97;;
32455;SDS011;18912;43.270;27.942;2023-03-23T03:54:14;5.63;;;3.47;;
32455;SDS011;18912;43.270;27.942;2023-03-23T03:56:40;6.40;;;4.28;;
32455;SDS011;18912;43.270;27.942;2023-03-23T03:59:07;5.85;;;3.58;;
32455;SDS011;18912;43.270;27.942;2023-03-23T04:01:34;9.88;;;4.07;;
32455;SDS011;18912;43.270;27.942;2023-03-23T04:04:00;7.20;;;4.40;;
32455;SDS011;18912;43.270;27.942;2023-03-23T04:06:26;7.17;;;4.90;;
32455;SDS011;18912;43.270;27.942;2023-03-23T04:08:53;6.72;;;4.43;;
32455;SDS011;18912;43.270;27.942;2023-03-23T04:11:23;6.80;;;4.30;;
32455;SDS011;18912;43.270;27.942;2023-03-23T04:16:16;5.53;;;3.90;;
32455;SDS011;18912;43.270;27.942;2023-03-23T04:18:42;6.75;;;4.60;;
32455;SDS011;18912;43.270;27.942;2023-03-23T04:21:07;8.40;;;4.82;;
32455;SDS011;18912;43.270;27.942;2023-03-23T04:23:33;7.90;;;4.87;;
32455;SDS011;18912;43.270;27.942;2023-03-23T04:26:00;7.78;;;5.05;;
32455;SDS011;18912;43.270;27.942;2023-03-23T04:28:26;7.55;;;5.32;;
32455;SDS011;18912;43.270;27.942;2023-03-23T04:30:52;8.05;;;4.97;;
32455;SDS011;18912;43.270;27.942;2023-03-23T04:33:19;8.25;;;5.10;;
32455;SDS011;18912;43.270;27.942;2023-03-23T04:35:46;11.65;;;5.47;;
32455;SDS011;18912;43.270;27.942;2023-03-23T04:38:13;9.30;;;5.25;;
32455;SDS011;18912;43.270;27.942;2023-03-23T04:40:41;9.57;;;5.80;;
32455;SDS011;18912;43.270;27.942;2023-03-23T04:43:08;8.45;;;5.28;;
32455;SDS011;18912;43.270;27.942;2023-03-23T04:45:34;8.38;;;5.20;;
32455;SDS011;18912;43.270;27.942;2023-03-23T04:48:02;7.13;;;4.85;;
32455;SDS011;18912;43.270;27.942;2023-03-23T04:50:29;11.55;;;5.22;;
32455;SDS011;18912;43.270;27.942;2023-03-23T04:52:58;8.43;;;5.10;;
32455;SDS011;18912;43.270;27.942;2023-03-23T04:55:28;6.03;;;4.55;;
32455;SDS011;18912;43.270;27.942;2023-03-23T04:58:01;7.95;;;4.90;;
32455;SDS011;18912;43.270;27.942;2023-03-23T05:00:31;6.68;;;4.25;;
32455;SDS011;18912;43.270;27.942;2023-03-23T05:02:57;7.60;;;4.78;;
32455;SDS011;18912;43.270;27.942;2023-03-23T05:05:24;7.40;;;4.47;;
32455;SDS011;18912;43.270;27.942;2023-03-23T05:10:16;7.72;;;5.03;;
32455;SDS011;18912;43.270;27.942;2023-03-23T05:12:42;11.15;;;6.40;;
32455;SDS011;18912;43.270;27.942;2023-03-23T05:17:35;12.32;;;5.88;;
32455;SDS011;18912;43.270;27.942;2023-03-23T05:20:01;10.47;;;5.97;;
32455;SDS011;18912;43.270;27.942;2023-03-23T05:22:34;11.70;;;6.03;;
32455;SDS011;18912;43.270;27.942;2023-03-23T05:27:30;10.35;;;6.10;;
32455;SDS011;18912;43.270;27.942;2023-03-23T05:29:57;12.00;;;5.13;;
32455;SDS011;18912;43.270;27.942;2023-03-23T05:32:24;10.38;;;5.35;;
32455;SDS011;18912;43.270;27.942;2023-03-23T05:34:57;8.57;;;5.80;;
32455;SDS011;18912;43.270;27.942;2023-03-23T05:37:24;8.25;;;5.57;;
32455;SDS011;18912;43.270;27.942;2023-03-23T05:39:51;13.93;;;7.47;;
32455;SDS011;18912;43.270;27.942;2023-03-23T05:44:44;11.02;;;6.45;;
32455;SDS011;18912;43.270;27.942;2023-03-23T05:47:10;11.90;;;5.93;;
32455;SDS011;18912;43.270;27.942;2023-03-23T05:49:35;9.00;;;5.90;;
32455;SDS011;18912;43.270;27.942;2023-03-23T05:52:01;9.97;;;5.93;;
32455;SDS011;18912;43.270;27.942;2023-03-23T05:54:26;8.23;;;4.60;;
32455;SDS011;18912;43.270;27.942;2023-03-23T05:56:52;9.77;;;6.83;;
32455;SDS011;18912;43.270;27.942;2023-03-23T05:59:18;11.27;;;6.60;;
32455;SDS011;18912;43.270;27.942;2023-03-23T06:01:43;13.47;;;7.40;;
32455;SDS011;18912;43.270;27.942;2023-03-23T06:04:09;13.33;;;8.07;;
32455;SDS011;18912;43.270;27.942;2023-03-23T06:06:36;13.73;;;8.27;;
32455;SDS011;18912;43.270;27.942;2023-03-23T06:09:02;14.27;;;8.30;;
32455;SDS011;18912;43.270;27.942;2023-03-23T06:11:28;13.65;;;7.63;;
32455;SDS011;18912;43.270;27.942;2023-03-23T06:13:53;17.13;;;9.17;;
32455;SDS011;18912;43.270;27.942;2023-03-23T06:16:19;13.70;;;7.63;;
32455;SDS011;18912;43.270;27.942;2023-03-23T06:18:45;14.00;;;8.20;;
32455;SDS011;18912;43.270;27.942;2023-03-23T06:21:11;13.93;;;7.28;;
32455;SDS011;18912;43.270;27.942;2023-03-23T06:23:37;11.85;;;7.32;;
32455;SDS011;18912;43.270;27.942;2023-03-23T06:26:04;13.20;;;7.80;;
32455;SDS011;18912;43.270;27.942;2023-03-23T06:28:32;10.35;;;6.30;;
32455;SDS011;18912;43.270;27.942;2023-03-23T06:31:02;10.20;;;5.97;;
32455;SDS011;18912;43.270;27.942;2023-03-23T06:33:31;10.90;;;6.30;;
32455;SDS011;18912;43.270;27.942;2023-03-23T06:35:58;10.95;;;6.10;;
32455;SDS011;18912;43.270;27.942;2023-03-23T06:38:25;9.45;;;6.00;;
32455;SDS011;18912;43.270;27.942;2023-03-23T06:40:54;12.50;;;6.50;;
32455;SDS011;18912;43.270;27.942;2023-03-23T06:43:20;12.05;;;6.95;;
32455;SDS011;18912;43.270;27.942;2023-03-23T06:45:46;14.05;;;7.70;;
32455;SDS011;18912;43.270;27.942;2023-03-23T06:48:12;14.90;;;10.00;;
32455;SDS011;18912;43.270;27.942;2023-03-23T06:50:38;13.10;;;7.72;;
32455;SDS011;18912;43.270;27.942;2023-03-23T06:53:04;16.53;;;8.20;;
32455;SDS011;18912;43.270;27.942;2023-03-23T06:55:30;11.90;;;5.90;;
32455;SDS011;18912;43.270;27.942;2023-03-23T06:57:55;14.85;;;8.57;;
32455;SDS011;18912;43.270;27.942;2023-03-23T07:00:22;14.82;;;7.93;;
32455;SDS011;18912;43.270;27.942;2023-03-23T07:02:48;15.70;;;8.37;;
32455;SDS011;18912;43.270;27.942;2023-03-23T07:05:14;15.73;;;8.17;;
32455;SDS011;18912;43.270;27.942;2023-03-23T07:07:39;17.47;;;9.63;;
32455;SDS011;18912;43.270;27.942;2023-03-23T07:10:06;14.02;;;8.20;;
32455;SDS011;18912;43.270;27.942;2023-03-23T07:12:36;16.15;;;8.63;;
32455;SDS011;18912;43.270;27.942;2023-03-23T07:15:02;12.63;;;7.78;;
32455;SDS011;18912;43.270;27.942;2023-03-23T07:17:29;23.45;;;8.18;;
32455;SDS011;18912;43.270;27.942;2023-03-23T07:19:54;15.83;;;8.17;;
32455;SDS011;18912;43.270;27.942;2023-03-23T07:22:20;17.90;;;8.73;;
32455;SDS011;18912;43.270;27.942;2023-03-23T07:24:46;16.08;;;8.82;;
32455;SDS011;18912;43.270;27.942;2023-03-23T07:27:11;16.80;;;9.90;;
32455;SDS011;18912;43.270;27.942;2023-03-23T07:29:37;14.60;;;8.57;;
32455;SDS011;18912;43.270;27.942;2023-03-23T07:32:04;17.13;;;9.98;;
32455;SDS011;18912;43.270;27.942;2023-03-23T07:34:30;21.08;;;9.70;;
32455;SDS011;18912;43.270;27.942;2023-03-23T07:36:57;19.90;;;10.07;;
32455;SDS011;18912;43.270;27.942;2023-03-23T07:39:23;16.13;;;9.50;;
32455;SDS011;18912;43.270;27.942;2023-03-23T07:41:49;10.40;;;5.78;;
32455;SDS011;18912;43.270;27.942;2023-03-23T07:46:41;19.77;;;11.02;;
32455;SDS011;18912;43.270;27.942;2023-03-23T07:49:07;14.73;;;7.70;;
32455;SDS011;18912;43.270;27.942;2023-03-23T07:51:33;19.52;;;9.90;;
32455;SDS011;18912;43.270;27.942;2023-03-23T07:53:59;17.92;;;9.80;;
32455;SDS011;18912;43.270;27.942;2023-03-23T07:56:27;15.48;;;8.65;;
32455;SDS011;18912;43.270;27.942;2023-03-23T07:58:53;16.30;;;9.02;;
32455;SDS011;18912;43.270;27.942;2023-03-23T08:01:19;13.77;;;8.47;;
32455;SDS011;18912;43.270;27.942;2023-03-23T08:03:44;20.50;;;13.00;;
32455;SDS011;18912;43.270;27.942;2023-03-23T08:06:10;17.03;;;10.80;;
32455;SDS011;18912;43.270;27.942;2023-03-23T08:08:35;20.20;;;10.90;;
32455;SDS011;18912;43.270;27.942;2023-03-23T08:11:02;23.25;;;12.13;;
32455;SDS011;18912;43.270;27.942;2023-03-23T08:13:28;22.42;;;12.18;;
32455;SDS011;18912;43.270;27.942;2023-03-23T08:15:54;20.23;;;10.47;;
32455;SDS011;18912;43.270;27.942;2023-03-23T08:18:20;23.87;;;12.43;;
32455;SDS011;18912;43.270;27.942;2023-03-23T08:20:45;22.73;;;11.47;;
32455;SDS011;18912;43.270;27.942;2023-03-23T08:23:11;25.77;;;13.37;;
32455;SDS011;18912;43.270;27.942;2023-03-23T08:25:36;28.93;;;15.00;;
32455;SDS011;18912;43.270;27.942;2023-03-23T08:28:02;23.30;;;10.47;;
32455;SDS011;18912;43.270;27.942;2023-03-23T08:32:55;19.73;;;9.57;;
32455;SDS011;18912;43.270;27.942;2023-03-23T08:35:22;20.33;;;10.85;;
32455;SDS011;18912;43.270;27.942;2023-03-23T08:37:48;22.30;;;10.88;;
32455;SDS011;18912;43.270;27.942;2023-03-23T08:40:18;24.75;;;11.88;;
32455;SDS011;18912;43.270;27.942;2023-03-23T08:42:46;23.00;;;11.70;;
32455;SDS011;18912;43.270;27.942;2023-03-23T08:45:14;27.63;;;13.52;;
32455;SDS011;18912;43.270;27.942;2023-03-23T08:47:41;27.13;;;12.63;;
32455;SDS011;18912;43.270;27.942;2023-03-23T08:50:08;22.27;;;10.98;;
32455;SDS011;18912;43.270;27.942;2023-03-23T08:52:37;28.40;;;11.75;;
32455;SDS011;18912;43.270;27.942;2023-03-23T08:55:04;27.20;;;11.05;;
32455;SDS011;18912;43.270;27.942;2023-03-23T08:57:30;21.23;;;10.80;;
32455;SDS011;18912;43.270;27.942;2023-03-23T08:59:56;27.48;;;11.73;;
32455;SDS011;18912;43.270;27.942;2023-03-23T09:02:33;23.67;;;11.38;;
32455;SDS011;18912;43.270;27.942;2023-03-23T09:04:59;22.77;;;12.57;;
32455;SDS011;18912;43.270;27.942;2023-03-23T09:07:26;22.25;;;12.30;;
32455;SDS011;18912;43.270;27.942;2023-03-23T09:09:52;25.63;;;13.23;;
32455;SDS011;18912;43.270;27.942;2023-03-23T09:12:18;29.83;;;15.85;;
32455;SDS011;18912;43.270;27.942;2023-03-23T09:14:43;22.40;;;12.03;;
32455;SDS011;18912;43.270;27.942;2023-03-23T09:17:09;39.87;;;18.43;;
32455;SDS011;18912;43.270;27.942;2023-03-23T09:19:35;26.48;;;14.07;;
32455;SDS011;18912;43.270;27.942;2023-03-23T09:22:01;21.30;;;11.33;;
32455;SDS011;18912;43.270;27.942;2023-03-23T09:26:53;24.85;;;11.35;;
32455;SDS011;18912;43.270;27.942;2023-03-23T09:29:18;23.17;;;11.30;;
32455;SDS011;18912;43.270;27.942;2023-03-23T09:31:44;26.80;;;13.03;;
32455;SDS011;18912;43.270;27.942;2023-03-23T09:34:12;18.15;;;9.95;;
32455;SDS011;18912;43.270;27.942;2023-03-23T09:36:40;22.17;;;10.55;;
32455;SDS011;18912;43.270;27.942;2023-03-23T09:39:06;21.85;;;9.57;;
32455;SDS011;18912;43.270;27.942;2023-03-23T09:47:25;18.65;;;9.35;;
32455;SDS011;18912;43.270;27.942;2023-03-23T09:50:08;15.85;;;9.75;;
32455;SDS011;18912;43.270;27.942;2023-03-23T09:52:56;13.70;;;8.82;;
32455;SDS011;18912;43.270;27.942;2023-03-23T09:55:24;14.30;;;7.88;;
32455;SDS011;18912;43.270;27.942;2023-03-23T10:00:39;15.13;;;8.43;;
32455;SDS011;18912;43.270;27.942;2023-03-23T10:03:14;14.60;;;8.63;;
32455;SDS011;18912;43.270;27.942;2023-03-23T10:05:44;11.65;;;6.53;;
32455;SDS011;18912;43.270;27.942;2023-03-23T10:08:47;10.05;;;6.65;;
32455;SDS011;18912;43.270;27.942;2023-03-23T10:11:16;11.13;;;7.00;;
32455;SDS011;18912;43.270;27.942;2023-03-23T10:16:33;14.85;;;6.43;;
32455;SDS011;18912;43.270;27.942;2023-03-23T10:19:15;11.25;;;6.25;;
32455;SDS011;18912;43.270;27.942;2023-03-23T10:21:44;13.07;;;6.70;;
32455;SDS011;18912;43.270;27.942;2023-03-23T10:24:16;12.35;;;7.22;;
32455;SDS011;18912;43.270;27.942;2023-03-23T10:26:51;16.23;;;9.02;;
32455;SDS011;18912;43.270;27.942;2023-03-23T10:29:30;15.27;;;7.65;;
32455;SDS011;18912;43.270;27.942;2023-03-23T10:32:03;13.23;;;7.90;;
32455;SDS011;18912;43.270;27.942;2023-03-23T10:34:59;17.00;;;8.27;;
32455;SDS011;18912;43.270;27.942;2023-03-23T10:37:32;12.48;;;8.25;;
32455;SDS011;18912;43.270;27.942;2023-03-23T10:40:03;16.52;;;8.45;;
32455;SDS011;18912;43.270;27.942;2023-03-23T10:42:35;17.25;;;9.18;;
32455;SDS011;18912;43.270;27.942;2023-03-23T10:47:56;16.33;;;9.30;;
32455;SDS011;18912;43.270;27.942;2023-03-23T10:50:42;17.25;;;9.73;;
32455;SDS011;18912;43.270;27.942;2023-03-23T10:53:23;17.73;;;9.65;;
32455;SDS011;18912;43.270;27.942;2023-03-23T10:56:02;18.48;;;9.40;;
32455;SDS011;18912;43.270;27.942;2023-03-23T10:58:30;17.52;;;10.70;;
32455;SDS011;18912;43.270;27.942;2023-03-23T11:00:58;27.58;;;9.75;;
32455;SDS011;18912;43.270;27.942;2023-03-23T11:06:34;22.77;;;9.73;;
32455;SDS011;18912;43.270;27.942;2023-03-23T11:09:18;18.85;;;9.18;;
32455;SDS011;18912;43.270;27.942;2023-03-23T11:11:48;19.85;;;10.23;;
32455;SDS011;18912;43.270;27.942;2023-03-23T11:14:17;15.98;;;9.82;;
32455;SDS011;18912;43.270;27.942;2023-03-23T11:16:54;21.67;;;10.43;;
32455;SDS011;18912;43.270;27.942;2023-03-23T11:19:26;18.38;;;10.32;;
32455;SDS011;18912;43.270;27.942;2023-03-23T11:21:55;17.25;;;10.38;;
32455;SDS011;18912;43.270;27.942;2023-03-23T11:24:31;18.20;;;9.80;;
32455;SDS011;18912;43.270;27.942;2023-03-23T11:27:11;18.60;;;10.38;;
32455;SDS011;18912;43.270;27.942;2023-03-23T11:30:23;15.38;;;9.13;;
32455;SDS011;18912;43.270;27.942;2023-03-23T11:32:34;18.65;;;10.13;;
32455;SDS011;18912;43.270;27.942;2023-03-23T11:35:02;17.63;;;9.82;;
32455;SDS011;18912;43.270;27.942;2023-03-23T11:37:34;24.98;;;10.05;;
32455;SDS011;18912;43.270;27.942;2023-03-23T11:50:47;26.35;;;11.25;;
32455;SDS011;18912;43.270;27.942;2023-03-23T11:58:31;22.73;;;12.25;;
32455;SDS011;18912;43.270;27.942;2023-03-23T12:07:06;22.95;;;13.63;;
32455;SDS011;18912;43.270;27.942;2023-03-23T12:23:23;29.33;;;17.50;;
32455;SDS011;18912;43.270;27.942;2023-03-23T12:44:09;34.70;;;17.75;;
32455;SDS011;18912;43.270;27.942;2023-03-23T12:49:34;38.10;;;20.00;;
32455;SDS011;18912;43.270;27.942;2023-03-23T12:57:14;46.60;;;20.10;;
32455;SDS011;18912;43.270;27.942;2023-03-23T12:59:52;49.10;;;23.50;;
32455;SDS011;18912;43.270;27.942;2023-03-23T13:02:29;61.70;;;28.85;;
32455;SDS011;18912;43.270;27.942;2023-03-23T13:05:06;48.05;;;22.15;;
32455;SDS011;18912;43.270;27.942;2023-03-23T13:07:49;40.83;;;21.27;;
32455;SDS011;18912;43.270;27.942;2023-03-23T13:10:26;48.20;;;23.17;;
32455;SDS011;18912;43.270;27.942;2023-03-23T13:12:57;41.45;;;20.23;;
32455;SDS011;18912;43.270;27.942;2023-03-23T13:17:59;51.80;;;26.25;;
32455;SDS011;18912;43.270;27.942;2023-03-23T13:20:37;45.80;;;22.20;;
32455;SDS011;18912;43.270;27.942;2023-03-23T13:23:19;40.45;;;21.60;;
32455;SDS011;18912;43.270;27.942;2023-03-23T13:28:32;45.72;;;21.63;;
32455;SDS011;18912;43.270;27.942;2023-03-23T13:31:20;52.10;;;25.88;;
32455;SDS011;18912;43.270;27.942;2023-03-23T13:33:50;34.80;;;19.25;;
32455;SDS011;18912;43.270;27.942;2023-03-23T13:36:34;39.63;;;20.58;;
32455;SDS011;18912;43.270;27.942;2023-03-23T13:39:03;232.23;;;68.55;;
32455;SDS011;18912;43.270;27.942;2023-03-23T13:41:33;86.75;;;31.52;;
32455;SDS011;18912;43.270;27.942;2023-03-23T13:46:41;104.75;;;40.13;;
32455;SDS011;18912;43.270;27.942;2023-03-23T13:49:20;83.07;;;31.80;;
32455;SDS011;18912;43.270;27.942;2023-03-23T13:51:52;112.20;;;44.88;;
32455;SDS011;18912;43.270;27.942;2023-03-23T13:57:20;50.00;;;24.50;;
32455;SDS011;18912;43.270;27.942;2023-03-23T13:59:47;44.37;;;21.60;;
32455;SDS011;18912;43.270;27.942;2023-03-23T14:04:51;38.88;;;18.42;;
32455;SDS011;18912;43.270;27.942;2023-03-23T14:07:17;40.80;;;20.33;;
32455;SDS011;18912;43.270;27.942;2023-03-23T14:09:44;47.15;;;25.63;;
32455;SDS011;18912;43.270;27.942;2023-03-23T14:12:26;50.50;;;26.10;;
32455;SDS011;18912;43.270;27.942;2023-03-23T14:14:57;108.75;;;51.95;;
32455;SDS011;18912;43.270;27.942;2023-03-23T14:17:30;47.92;;;23.95;;
32455;SDS011;18912;43.270;27.942;2023-03-23T14:19:58;49.72;;;23.48;;
32455;SDS011;18912;43.270;27.942;2023-03-23T14:22:35;52.75;;;25.75;;
32455;SDS011;18912;43.270;27.942;2023-03-23T14:27:40;52.55;;;25.63;;
32455;SDS011;18912;43.270;27.942;2023-03-23T14:30:08;87.22;;;35.17;;
32455;SDS011;18912;43.270;27.942;2023-03-23T14:32:38;139.65;;;51.72;;
32455;SDS011;18912;43.270;27.942;2023-03-23T14:35:07;41.00;;;21.80;;
32455;SDS011;18912;43.270;27.942;2023-03-23T14:37:42;56.20;;;25.88;;
32455;SDS011;18912;43.270;27.942;2023-03-23T14:40:10;69.70;;;31.53;;
32455;SDS011;18912;43.270;27.942;2023-03-23T14:42:40;46.15;;;22.50;;
32455;SDS011;18912;43.270;27.942;2023-03-23T14:45:07;50.08;;;25.98;;
32455;SDS011;18912;43.270;27.942;2023-03-23T14:47:38;82.70;;;33.90;;
32455;SDS011;18912;43.270;27.942;2023-03-23T14:50:29;71.35;;;29.42;;
32455;SDS011;18912;43.270;27.942;2023-03-23T14:55:47;53.28;;;25.60;;
32455;SDS011;18912;43.270;27.942;2023-03-23T14:58:16;71.90;;;29.67;;
32455;SDS011;18912;43.270;27.942;2023-03-23T15:00:45;54.08;;;24.17;;
32455;SDS011;18912;43.270;27.942;2023-03-23T15:03:16;48.20;;;20.08;;
32455;SDS011;18912;43.270;27.942;2023-03-23T15:05:46;45.10;;;20.48;;
32455;SDS011;18912;43.270;27.942;2023-03-23T15:08:20;43.42;;;20.67;;
32455;SDS011;18912;43.270;27.942;2023-03-23T15:11:06;43.38;;;18.52;;
32455;SDS011;18912;43.270;27.942;2023-03-23T15:13:37;49.38;;;20.08;;
32455;SDS011;18912;43.270;27.942;2023-03-23T15:16:12;38.40;;;18.90;;
32455;SDS011;18912;43.270;27.942;2023-03-23T15:22:05;57.10;;;25.73;;
32455;SDS011;18912;43.270;27.942;2023-03-23T15:24:20;99.22;;;45.72;;
32455;SDS011;18912;43.270;27.942;2023-03-23T15:26:52;111.85;;;48.53;;
32455;SDS011;18912;43.270;27.942;2023-03-23T15:29:19;96.10;;;46.75;;
32455;SDS011;18912;43.270;27.942;2023-03-23T15:31:57;55.92;;;29.48;;
32455;SDS011;18912;43.270;27.942;2023-03-23T15:36:54;54.53;;;24.53;;
32455;SDS011;18912;43.270;27.942;2023-03-23T15:39:25;57.15;;;28.67;;
32455;SDS011;18912;43.270;27.942;2023-03-23T15:41:52;60.67;;;30.90;;
32455;SDS011;18912;43.270;27.942;2023-03-23T15:44:23;87.05;;;35.05;;
32455;SDS011;18912;43.270;27.942;2023-03-23T15:47:02;60.40;;;28.70;;
32455;SDS011;18912;43.270;27.942;2023-03-23T15:49:58;44.15;;;22.33;;
32455;SDS011;18912;43.270;27.942;2023-03-23T15:52:28;50.80;;;25.98;;
32455;SDS011;18912;43.270;27.942;2023-03-23T15:54:53;49.05;;;25.05;;
32455;SDS011;18912;43.270;27.942;2023-03-23T15:57:19;63.50;;;26.80;;
32455;SDS011;18912;43.270;27.942;2023-03-23T15:59:44;62.87;;;32.20;;
32455;SDS011;18912;43.270;27.942;2023-03-23T16:02:13;58.00;;;29.13;;
32455;SDS011;18912;43.270;27.942;2023-03-23T16:04:43;88.28;;;42.83;;
32455;SDS011;18912;43.270;27.942;2023-03-23T16:07:09;188.93;;;68.53;;
32455;SDS011;18912;43.270;27.942;2023-03-23T16:09:38;146.50;;;56.03;;
32455;SDS011;18912;43.270;27.942;2023-03-23T16:12:09;103.95;;;43.65;;
32455;SDS011;18912;43.270;27.942;2023-03-23T16:14:38;97.10;;;41.83;;
32455;SDS011;18912;43.270;27.942;2023-03-23T16:17:04;88.72;;;36.78;;
32455;SDS011;18912;43.270;27.942;2023-03-23T16:19:30;75.03;;;32.03;;
32455;SDS011;18912;43.270;27.942;2023-03-23T16:21:56;63.53;;;29.80;;
32455;SDS011;18912;43.270;27.942;2023-03-23T16:24:21;78.37;;;36.27;;
32455;SDS011;18912;43.270;27.942;2023-03-23T16:26:47;60.63;;;28.77;;
32455;SDS011;18912;43.270;27.942;2023-03-23T16:29:13;52.83;;;25.40;;
32455;SDS011;18912;43.270;27.942;2023-03-23T16:31:40;66.35;;;26.73;;
32455;SDS011;18912;43.270;27.942;2023-03-23T16:34:05;55.67;;;24.73;;
32455;SDS011;18912;43.270;27.942;2023-03-23T16:36:31;43.90;;;22.13;;
32455;SDS011;18912;43.270;27.942;2023-03-23T16:38:57;46.17;;;21.88;;
32455;SDS011;18912;43.270;27.942;2023-03-23T16:41:23;35.20;;;19.33;;
32455;SDS011;18912;43.270;27.942;2023-03-23T16:43:48;40.17;;;18.87;;
32455;SDS011;18912;43.270;27.942;2023-03-23T16:46:14;56.00;;;23.50;;
32455;SDS011;18912;43.270;27.942;2023-03-23T16:48:39;41.90;;;23.03;;
32455;SDS011;18912;43.270;27.942;2023-03-23T16:51:05;67.17;;;32.00;;
32455;SDS011;18912;43.270;27.942;2023-03-23T16:53:31;55.17;;;26.33;;
32455;SDS011;18912;43.270;27.942;2023-03-23T16:55:57;56.50;;;29.33;;
32455;SDS011;18912;43.270;27.942;2023-03-23T16:58:23;68.80;;;34.30;;
32455;SDS011;18912;43.270;27.942;2023-03-23T17:00:49;54.90;;;28.67;;
32455;SDS011;18912;43.270;27.942;2023-03-23T17:03:16;80.88;;;42.13;;
32455;SDS011;18912;43.270;27.942;2023-03-23T17:05:43;77.13;;;42.25;;
32455;SDS011;18912;43.270;27.942;2023-03-23T17:08:11;57.17;;;34.03;;
32455;SDS011;18912;43.270;27.942;2023-03-23T17:10:37;72.77;;;36.03;;
32455;SDS011;18912;43.270;27.942;2023-03-23T17:13:04;73.07;;;35.25;;